Antonito, CO (81120)

7:54 AM MDT on August 20, 2014 (GMT -0600)
RAWS BIG HORN CO US | Change Station
CLOSE
Current Station
Personal Weather Station
Location: Antonito, CO
Elevation: 8650 ft
Nearby Weather Stations

Elev 8650 ft 37.02 °N, 106.20 °W | Updated 56 minutes ago

Scattered Clouds
Scattered Clouds
54 °F
Feels Like 54 °F
N
2
Wind Variable Wind from South
Gusts 4.0 mph

Today
High -- | Low -- °F
--% Chance of Precip.
Yesterday
High -- | Low -- °F
Precip. -- in
6:25 AM 7:50 PM
Waning Crescent, 21% visible
Pressure 29.87 in
Visibility 10.0 miles
Clouds Scattered Clouds 9500 ft
Dew Point 46 °F
Humidity 74%
Rainfall 0.01 in
Snow Depth 0 in
UV 0 out of 12
Pollen 10.30 out of 12
Air Quality Not available.
Flu Activity Not available.
METAR KALS 201252Z AUTO 00000KT 10SM SCT095 14/08 A3015 RMK AO2 SLP113 T01390083 PNO $

More Conditions Fewer Conditions

Pressure 29.87 in
Visibility 10.0 miles
Clouds Scattered Clouds 9500 ft
Dew Point 46 °F
Humidity 74%
Rainfall 0.01 in
Snow Depth 0 in
UV 0 out of 12
Pollen 10.30 out of 12
Air Quality Not available.
Flu Activity Not available.
METAR KALS 201252Z AUTO 00000KT 10SM SCT095 14/08 A3015 RMK AO2 SLP113 T01390083 PNO $

More Conditions Fewer Conditions

10-Day Weather Forecast

Almanac

Astronomy

Aug. 20, 2014 Rise Set
Actual Time 6:25 AM MDT 7:50 PM MDT
Civil Twilight 5:58 AM MDT 8:17 PM MDT
Nautical Twilight 5:25 AM MDT 8:49 PM MDT
Astronomical Twilight 4:51 AM MDT 9:24 PM MDT
Moon 2:10 AM MDT 4:34 PM MDT
Length of Visible Light 14h 18m
Length of Day
13h 24m
Tomorrow will be 2m 10s shorter.
Waning Crescent, 21% of the Moon is Illuminated
Today
Waning Crescent
Aug 25
New
Sep 2
First Quarter
Sep 8
Full
Sep 15
Last Quarter

Today's Extremes

State Highs State Lows

Community

WunderPhotos

Upload Photos

1,745,630 photos uploaded!

WunderBlogs® & News

By Dr. Jeff Masters
Director of Meteorology, Weather Underground
By Kari Strenfel
Meteorologist, Weather Underground
By Christopher C. Burt
Weather Historian, Weather Underground
August 20, 2014
August 20, 2014
August 20, 2014

Nearby

Snow Depth

Station Depth Elevation
Cumbres Trestle 0 in 10020 ft
Wolf Creek Summit 0 in 11000 ft
Upper San Juan 2 in 10130 ft
Culebra #2 0 in 10500 ft
Ute Creek 0 in 10650 ft

Earthquake Activity

City Distance Mag. Time & Date
No recent earthquake activity has been reported nearby.
Minimum magnitude displayed is 2.5.

Coastal Water Temperatures

Place Temperature
No Stations Reporting

Nearby Weather Stations